AirNav   ATP
 
 1578 users online  

5IN9 Stangland Airport
Wolflake, Indiana, USA

GOING TO WOLFLAKE?


FAA INFORMATION EFFECTIVE 20 JULY 2017

Location

FAA Identifier: 5IN9
Lat/Long: 41-18-58.1710N / 085-27-53.9290W
41-18.969517N / 085-27.898817W
41.3161586 / -85.4649803
(estimated)
Elevation: 924 ft. / 282 m (estimated)
Variation: 03W (1985)
From city: 2 miles SE of WOLFLAKE, IN
Time zone: UTC -4 (UTC -5 during Standard Time)
Zip code: 46701

Airport Operations

Airport use: Private use. Permission required prior to landing
Activation date: 04/1948
Control tower: no
ARTCC: CHICAGO CENTER
FSS: TERRE HAUTE FLIGHT SERVICE STATION
Attendance: UNATNDD
Wind indicator: yes
Segmented circle: no

Airport Communications

WX AWOS-3P at C62 (13 nm NE): 119.925 (260-347-2967)
WX AWOS-3 at ASW (17 nm W): 121.125 (574-269-7035)
WX AWOS-3 at SMD (17 nm SE): 124.55 (260-490-4030)
WX AWOS-3 at GWB (18 nm E): 124.15 (260-925-8225)
WX ASOS at GSH (19 nm NW): 121.45 (574-642-4231)

Nearby radio navigation aids

VOR radial/distance  VOR name  Freq  Var
OLKr022/(4.4)WEBSTER LAKE VOR110.4003W
FWAr334/23.8FORT WAYNE VORTAC117.8006W
GSHr116/28.3GOSHEN VORTAC113.7000E

 
NDB name  Hdg/Dist  Freq  Var  ID
ANGOLA226/25.834705WANQ .- -. --.-
HUNTINGTON003/27.741703WHHG .... .... --.
STURGIS187/29.938204WIRS .. .-. ...

Airport Services

Parking: hangars
Airframe service: NONE
Powerplant service: NONE
Bottled oxygen: NONE
Bulk oxygen: NONE

Runway Information

Runway 9/27

Dimensions: 1900 x 80 ft. / 579 x 24 m
Surface: turf
RUNWAY 9  RUNWAY 27
Traffic pattern: leftleft
Runway end identifier lights: nono
Obstructions: plinenone

Airport Ownership and Management from official FAA records

Ownership: Privately-owned
Owner: DON H. STANGLAND
1838 WEST 250 SOUTH
ALBION, IN 46701
Phone 219-636-7532

Airport Operational Statistics

Aircraft based on the field: 1
Single engine airplanes: 1
    
Aircraft operations: avg 85/month
85% local general aviation
15% transient general aviation

Instrument Procedures

There are no published instrument procedures at 5IN9.

Some nearby airports with instrument procedures:

C62 - Kendallville Municipal Airport (13 nm NE)
KASW - Warsaw Municipal Airport (17 nm W)
KSMD - Smith Field Airport (17 nm SE)
KGWB - De Kalb County Airport (18 nm E)
KGSH - Goshen Municipal Airport (19 nm NW)
 
Loc | Ops | Rwys | IFR | FBO | Links
Com | Nav | Svcs | Stats | Notes

City of Findlay
 
Area around 5IN9 (Stangland Airport)
 
Road maps at: MapQuest Bing Google
 
Aerial photo
No photo
 
Sectional chart

 
Airport distance calculator
Flying to Stangland Airport? Find the distance to fly.

From to 5IN9

Sunrise and sunset
Times for 25-Jul-2017
 Local
(UTC-4)
 Zulu
(UTC)
Morning civil twilight05:5909:59
Sunrise06:3110:31
Sunset21:0501:05
Evening civil twilight21:3701:37

Current date and time
Zulu (UTC)  25-Jul-2017 16:04:47
Local (UTC-4)  25-Jul-2017 12:04:47
 
METAR
KASW 
17nm W 
251555Z AUTO 12008KT 10SM CLR 22/11 A3024 RMK AO2
KGWB 
18nm E 
251555Z AUTO 05009KT 10SM CLR 22/09 A3026 RMK AO2
KGSH 
19nm NW 
251553Z AUTO 13009KT 10SM CLR 24/10 A3024 RMK AO2 SLP238 T02390100
KFWA 
24nm SE 
251554Z 07008KT 10SM SCT300 22/10 A3025 RMK AO2 SLP239 T02220100
KHHG 
28nm S 
251555Z AUTO 07005KT 10SM CLR 22/11 A3024 RMK AO2 T02180110
KIRS 
29nm N 
251554Z AUTO 12007KT 10SM CLR 22/12 A3024 RMK AO2 T02200122
KEKM 
34nm NW 
251550Z 11004KT 10SM CLR MM/MM A3023 RMK AO2
TAF
KFWA 
24nm SE 
251123Z 2512/2612 09003KT P6SM FEW250 FM251500 09007KT P6SM FEW040 FM260200 12005KT P6SM BKN250
NOTAMs
Click for the latest NOTAMs
NOTAMs are issued by the DoD/FAA and will open in a separate window not controlled by AirNav.

 

 
 

Would you like to see your business listed on this page?

 If your business provides an interesting product or service to pilots, flight crews, aircraft, or users of the Stangland Airport, you should consider listing it here.  To start the listing process, click on the button below
 
Add a business
 

Other Pages about Stangland Airport

Update a link
 
Copyright © AirNav, LLC. All rights reserved. Privacy Policy  Contact